This is the latest recevied weather packets stored in our database for station/object K3SV. If no packets are shown the sender has not sent any weather packets the latest 10 day(s).
| Time | Temp. | Humidity | Pressure | Rain* | Wind** | Luminosity | Snow |
|---|---|---|---|---|---|---|---|
| 1778010386 | 31.11° C | 39% | 1014.5 hPa | 0 mm | - | 615 W/m² | - |
| 1778010082 | 30.56° C | 41% | 1014.7 hPa | 0 mm | - | 652 W/m² | - |
| 1778009779 | 30.56° C | 43% | 1014.8 hPa | 0 mm | - | 646 W/m² | - |
| 1778009476 | 30.56° C | 44% | 1014.6 hPa | 0 mm | - | 654 W/m² | - |
| 1778009175 | 30.56° C | 44% | 1014.6 hPa | 0 mm | - | 704 W/m² | - |
| 1778008871 | 30.56° C | 44% | 1014.8 hPa | 0 mm | - | 683 W/m² | - |
| 1778008570 | 30.56° C | 44% | 1014.8 hPa | 0 mm | - | 704 W/m² | - |
| 1778008268 | 30° C | 46% | 1014.8 hPa | 0 mm | - | 737 W/m² | - |
| 1778007963 | 30.56° C | 44% | 1014.9 hPa | 0 mm | - | 672 W/m² | - |
| 1778007659 | 30° C | 47% | 1015 hPa | 0 mm | - | 695 W/m² | - |
| 1778007356 | 30° C | 45% | 1015.1 hPa | 0 mm | - | 706 W/m² | - |
| 1778007051 | 28.89° C | 48% | 1015.3 hPa | 0 mm | - | 698 W/m² | - |
| 1778006743 | 29.44° C | 48% | 1015.2 hPa | 0 mm | - | 251 W/m² | - |
| 1778006439 | 29.44° C | 48% | 1015.1 hPa | 0 mm | - | 233 W/m² | - |
| 1778006136 | 30° C | 47% | 1015.3 hPa | 0 mm | - | 218 W/m² | - |
| 1778005834 | 30° C | 44% | 1015.2 hPa | 0 mm | - | 228 W/m² | - |
| 1778005530 | 30° C | 44% | 1015.3 hPa | 0 mm | - | 339 W/m² | - |
| 1778005227 | 30° C | 46% | 1015.3 hPa | 0 mm | - | 829 W/m² | - |
| 1778004923 | 30° C | 48% | 1015.5 hPa | 0 mm | - | 807 W/m² | - |
| 1778004620 | 29.44° C | 48% | 1015.5 hPa | 0 mm | - | 803 W/m² | - |
| 1778004310 | 29.44° C | 49% | 1015.6 hPa | 0 mm | - | 776 W/m² | - |
| 1778004009 | 28.89° C | 49% | 1015.5 hPa | 0 mm | - | 739 W/m² | - |
| 1778003703 | 30° C | 48% | 1015.5 hPa | 0 mm | - | 775 W/m² | - |
| 1778003401 | 29.44° C | 49% | 1015.8 hPa | 0 mm | - | 786 W/m² | - |
| 1778003098 | 29.44° C | 50% | 1015.7 hPa | 0 mm | - | 789 W/m² | - |
* Rain latest hour (hover to see other rain measurements)
** Current wind speed in m/s (hover to see current wind gust speed)